Time;durP1;ratioP1;P1;durP2;ratioP2;P2;SDS_P1;SDS_P2;PMS_P1;PMS_P2;Temp;Humidity;BMP_temperature;BMP_pressure;BME280_temperature;BME280_humidity;BME280_pressure;Samples;Min_cycle;Max_cycle;Signal;HPM_P1;HPM_P2
2021/03/10 00:00:50;;;;;;;10.38;5.20;;;1.60;54.70;;;;;;5093717;28;20043;-62
2021/03/10 00:03:16;;;;;;;10.85;5.45;;;1.60;54.50;;;;;;5098350;28;20039;-61
2021/03/10 00:05:42;;;;;;;10.43;5.40;;;1.60;54.40;;;;;;5098108;28;20023;-62
2021/03/10 00:08:07;;;;;;;9.70;5.40;;;1.70;54.90;;;;;;5097937;28;20100;-61
2021/03/10 00:10:33;;;;;;;11.55;5.53;;;1.60;55.10;;;;;;5096859;28;20574;-61
2021/03/10 00:12:59;;;;;;;8.30;4.97;;;1.60;55.30;;;;;;5077547;28;20103;-61
2021/03/10 00:15:24;;;;;;;10.43;5.40;;;1.60;55.00;;;;;;5095828;28;20476;-61
2021/03/10 00:17:51;;;;;;;13.45;6.18;;;1.50;55.50;;;;;;5095242;28;20035;-61
2021/03/10 00:20:18;;;;;;;11.73;5.93;;;1.50;55.10;;;;;;5096057;28;20043;-61
2021/03/10 00:22:43;;;;;;;10.20;5.88;;;1.50;55.10;;;;;;5095621;28;20137;-61
2021/03/10 00:25:10;;;;;;;10.82;5.32;;;1.40;55.10;;;;;;5077260;28;20137;-61
2021/03/10 00:27:35;;;;;;;10.75;5.78;;;1.40;55.10;;;;;;5099085;28;20036;-61
2021/03/10 00:30:04;;;;;;;10.70;5.20;;;1.40;55.10;;;;;;5099616;28;20032;-61
2021/03/10 00:32:30;;;;;;;8.20;4.95;;;1.30;55.00;;;;;;5094738;28;20031;-61
2021/03/10 00:34:56;;;;;;;9.68;5.05;;;1.40;54.40;;;;;;5096940;28;20027;-61
2021/03/10 00:37:23;;;;;;;11.57;5.45;;;1.40;54.30;;;;;;5100202;28;20026;-61
2021/03/10 00:39:49;;;;;;;10.38;5.32;;;1.40;54.40;;;;;;5099876;28;20039;-61
2021/03/10 00:42:16;;;;;;;11.75;4.97;;;1.40;54.30;;;;;;5082527;28;20046;-61
2021/03/10 00:44:42;;;;;;;9.48;4.93;;;1.30;54.10;;;;;;5077073;28;20050;-61
2021/03/10 00:47:08;;;;;;;10.02;4.75;;;1.40;54.50;;;;;;5100092;28;20061;-61
2021/03/10 00:49:34;;;;;;;11.23;4.85;;;1.40;54.20;;;;;;5100693;28;20031;-59
2021/03/10 00:52:00;;;;;;;7.53;4.40;;;1.30;54.20;;;;;;5099854;28;20835;-59
2021/03/10 00:54:26;;;;;;;11.80;4.90;;;1.40;54.10;;;;;;5099764;28;20027;-59
2021/03/10 00:56:52;;;;;;;10.27;4.43;;;1.30;54.20;;;;;;5098884;28;20046;-58
2021/03/10 00:59:17;;;;;;;11.60;4.82;;;1.30;55.00;;;;;;5099941;28;20058;-59
2021/03/10 01:01:43;;;;;;;11.10;4.15;;;1.30;54.20;;;;;;5099416;28;20104;-59
2021/03/10 01:04:09;;;;;;;8.60;4.75;;;1.20;54.30;;;;;;5097228;28;20042;-58
2021/03/10 01:06:35;;;;;;;10.05;4.82;;;1.10;54.80;;;;;;5099313;28;20032;-60
2021/03/10 01:09:01;;;;;;;10.35;5.28;;;1.10;54.70;;;;;;5099202;28;20039;-59
2021/03/10 01:11:26;;;;;;;9.75;4.95;;;1.00;54.80;;;;;;5099248;28;20027;-59
2021/03/10 01:13:52;;;;;;;11.20;4.88;;;1.00;55.60;;;;;;5096575;28;20031;-59
2021/03/10 01:16:18;;;;;;;10.95;4.55;;;1.00;55.70;;;;;;5094391;28;20035;-59
2021/03/10 01:18:43;;;;;;;8.38;4.70;;;1.00;55.50;;;;;;5094566;28;20397;-59
2021/03/10 01:21:10;;;;;;;6.93;3.78;;;1.00;56.10;;;;;;5099746;28;20055;-58
2021/03/10 01:23:36;;;;;;;9.65;4.30;;;1.00;55.50;;;;;;5099600;28;20112;-61
2021/03/10 01:26:02;;;;;;;7.28;4.38;;;1.00;55.10;;;;;;5099676;28;20036;-58
2021/03/10 01:28:27;;;;;;;9.70;4.13;;;1.00;55.40;;;;;;5099079;28;20108;-59
2021/03/10 01:30:53;;;;;;;8.75;4.45;;;1.00;55.40;;;;;;5098630;28;20035;-59
2021/03/10 01:33:19;;;;;;;9.18;4.30;;;1.00;55.20;;;;;;5096348;28;20040;-59
2021/03/10 01:35:45;;;;;;;10.15;4.53;;;1.00;55.10;;;;;;5098214;28;20496;-59
2021/03/10 01:38:11;;;;;;;8.13;4.63;;;1.00;55.10;;;;;;5097730;28;20088;-58
2021/03/10 01:40:37;;;;;;;12.82;5.70;;;1.00;55.30;;;;;;5098123;28;20372;-59
2021/03/10 01:43:07;;;;;;;12.35;5.60;;;1.10;54.90;;;;;;5096182;28;20475;-59
2021/03/10 01:45:34;;;;;;;9.75;4.40;;;1.20;55.10;;;;;;5100402;28;20637;-58
2021/03/10 01:48:01;;;;;;;8.40;4.55;;;1.10;54.60;;;;;;5100830;28;20150;-58
2021/03/10 01:50:28;;;;;;;10.23;4.95;;;1.10;55.30;;;;;;5100727;28;20020;-59
2021/03/10 01:52:55;;;;;;;9.93;5.03;;;1.10;55.30;;;;;;5090706;28;20546;-59
2021/03/10 01:55:22;;;;;;;11.32;4.72;;;1.00;55.30;;;;;;5078498;28;20043;-58
2021/03/10 01:57:48;;;;;;;10.02;4.60;;;1.00;55.70;;;;;;5078507;28;20078;-59
2021/03/10 02:00:14;;;;;;;13.35;5.07;;;1.00;56.00;;;;;;5078050;28;20119;-59
2021/03/10 02:02:41;;;;;;;11.95;5.03;;;1.00;55.80;;;;;;5077657;28;20040;-58
2021/03/10 02:05:09;;;;;;;8.70;4.22;;;1.00;56.00;;;;;;5077829;28;20940;-59
2021/03/10 02:07:53;;;;;;;10.57;5.82;;;1.00;56.00;;;;;;5077605;28;20034;-58
2021/03/10 02:10:42;;;;;;;11.68;4.60;;;1.00;56.50;;;;;;5078494;28;20040;-58
2021/03/10 02:13:19;;;;;;;9.80;4.53;;;1.00;56.30;;;;;;5077720;28;20068;-59
2021/03/10 02:15:55;;;;;;;11.10;4.18;;;0.90;56.40;;;;;;5078067;28;20027;-58
2021/03/10 02:18:36;;;;;;;8.63;4.68;;;0.80;56.50;;;;;;5078284;28;20071;-57
2021/03/10 02:21:14;;;;;;;9.02;4.30;;;0.70;56.50;;;;;;5078419;28;20480;-58
2021/03/10 02:24:03;;;;;;;10.45;4.97;;;0.70;56.70;;;;;;5077149;28;20032;-58
2021/03/10 02:27:06;;;;;;;11.10;4.43;;;0.70;56.70;;;;;;5077321;28;20496;-59
2021/03/10 02:29:33;;;;;;;9.70;4.93;;;0.70;56.80;;;;;;5076873;28;20044;-59
2021/03/10 02:32:01;;;;;;;9.52;4.45;;;0.80;56.70;;;;;;5077468;28;20039;-58
2021/03/10 02:34:28;;;;;;;15.00;5.82;;;0.70;56.80;;;;;;5077864;28;20776;-59
2021/03/10 02:36:55;;;;;;;17.02;6.20;;;0.80;56.60;;;;;;5058557;28;20556;-59
2021/03/10 02:39:23;;;;;;;12.15;5.20;;;0.80;56.40;;;;;;5078664;28;20040;-58
2021/03/10 02:41:49;;;;;;;11.88;5.28;;;0.80;56.70;;;;;;5097443;28;20037;-59
2021/03/10 02:44:16;;;;;;;11.40;4.85;;;0.80;56.90;;;;;;5097838;28;20700;-59
2021/03/10 02:46:42;;;;;;;9.18;4.03;;;0.70;56.70;;;;;;5096237;28;20040;-59
2021/03/10 02:49:08;;;;;;;9.40;5.05;;;0.70;57.40;;;;;;5096415;28;20503;-59
2021/03/10 02:51:35;;;;;;;14.40;5.50;;;0.80;56.90;;;;;;5096094;28;20043;-59
2021/03/10 02:54:02;;;;;;;10.23;4.72;;;0.70;56.90;;;;;;5097209;28;20030;-57
2021/03/10 02:56:28;;;;;;;9.07;5.30;;;0.80;56.90;;;;;;5097431;28;20829;-59
2021/03/10 02:58:54;;;;;;;13.73;4.13;;;0.70;57.10;;;;;;5096870;28;20031;-59
2021/03/10 03:01:20;;;;;;;10.15;4.35;;;0.70;56.70;;;;;;5096970;28;20081;-59
2021/03/10 03:03:46;;;;;;;11.25;5.03;;;0.70;57.30;;;;;;5096841;28;20028;-59
2021/03/10 03:06:11;;;;;;;8.30;4.25;;;0.70;57.10;;;;;;5096604;28;20424;-58
2021/03/10 03:08:37;;;;;;;9.73;4.47;;;0.70;57.30;;;;;;5096952;28;20842;-59
2021/03/10 03:11:04;;;;;;;10.20;4.43;;;0.70;57.20;;;;;;5096997;28;20045;-58
2021/03/10 03:13:31;;;;;;;10.77;5.40;;;0.70;57.30;;;;;;5096291;28;20024;-58
2021/03/10 03:15:59;;;;;;;8.27;4.43;;;0.70;57.60;;;;;;5096989;28;20046;-59
2021/03/10 03:18:27;;;;;;;11.98;4.60;;;0.60;58.00;;;;;;5096876;28;20160;-59
2021/03/10 03:20:53;;;;;;;8.80;4.30;;;0.60;58.10;;;;;;5096132;28;20167;-59
2021/03/10 03:23:20;;;;;;;12.60;5.28;;;0.50;57.90;;;;;;5097013;28;20063;-58
2021/03/10 03:25:49;;;;;;;12.35;4.93;;;0.50;58.60;;;;;;5096464;28;20138;-58
2021/03/10 03:28:20;;;;;;;9.38;4.47;;;0.40;58.70;;;;;;5096235;28;20036;-59
2021/03/10 03:30:47;;;;;;;6.97;4.00;;;0.40;58.70;;;;;;5078083;28;20055;-59
2021/03/10 03:33:18;;;;;;;10.70;4.68;;;0.30;58.80;;;;;;5096890;28;20033;-58
2021/03/10 03:35:50;;;;;;;7.90;4.22;;;0.40;58.90;;;;;;5090402;28;20039;-58
2021/03/10 03:38:16;;;;;;;11.57;4.22;;;0.30;59.30;;;;;;5096701;28;20684;-59
2021/03/10 03:40:43;;;;;;;10.38;5.07;;;0.20;59.00;;;;;;5088495;28;20698;-58
2021/03/10 03:43:12;;;;;;;11.10;4.60;;;0.20;59.60;;;;;;5090639;28;20078;-59
2021/03/10 03:45:38;;;;;;;12.57;5.07;;;0.20;59.30;;;;;;5093557;28;20252;-58
2021/03/10 03:48:05;;;;;;;8.52;4.75;;;0.20;59.70;;;;;;5097517;28;20797;-58
2021/03/10 03:50:31;;;;;;;13.43;5.28;;;0.20;58.90;;;;;;5094811;28;20031;-58
2021/03/10 03:52:57;;;;;;;11.05;4.40;;;0.20;58.70;;;;;;5098303;28;20046;-58
2021/03/10 03:55:23;;;;;;;10.88;5.75;;;0.10;59.00;;;;;;5098652;28;20031;-58
2021/03/10 03:57:49;;;;;;;9.95;5.05;;;0.00;59.20;;;;;;5098803;28;20055;-58
2021/03/10 04:00:19;;;;;;;13.00;5.32;;;0.10;59.30;;;;;;5099496;28;20038;-57
2021/03/10 04:02:45;;;;;;;9.95;4.57;;;0.10;59.30;;;;;;5096823;28;20050;-58
2021/03/10 04:05:12;;;;;;;14.00;5.88;;;0.00;59.60;;;;;;5095916;28;20043;-58
2021/03/10 04:07:58;;;;;;;9.35;4.80;;;0.00;59.70;;;;;;5096797;28;20035;-58
2021/03/10 04:10:27;;;;;;;9.97;4.77;;;0.20;59.60;;;;;;5096488;28;20039;-58
2021/03/10 04:12:52;;;;;;;10.82;4.97;;;0.20;60.00;;;;;;5096334;28;20996;-58
2021/03/10 04:15:19;;;;;;;9.27;4.70;;;0.30;60.00;;;;;;5077581;28;20027;-58
2021/03/10 04:17:45;;;;;;;14.75;5.90;;;0.30;59.60;;;;;;5096669;28;20023;-58
2021/03/10 04:20:16;;;;;;;10.80;5.47;;;0.30;59.70;;;;;;5095528;28;20047;-58
2021/03/10 04:22:43;;;;;;;12.73;4.78;;;0.30;59.70;;;;;;5097037;28;20054;-58
2021/03/10 04:25:10;;;;;;;15.20;4.63;;;0.20;59.70;;;;;;5096752;28;20761;-59
2021/03/10 04:27:36;;;;;;;11.73;5.15;;;0.20;59.60;;;;;;5096630;28;20138;-58
2021/03/10 04:30:05;;;;;;;15.60;5.20;;;0.20;59.60;;;;;;5097260;28;20042;-58
2021/03/10 04:32:31;;;;;;;9.65;5.07;;;0.20;59.30;;;;;;5090109;28;20120;-58
2021/03/10 04:34:57;;;;;;;12.63;5.13;;;0.20;59.30;;;;;;5092473;28;20863;-58
2021/03/10 04:37:23;;;;;;;10.48;5.03;;;0.20;59.50;;;;;;5095916;28;20115;-58
2021/03/10 04:39:48;;;;;;;14.35;4.90;;;0.10;59.40;;;;;;5088962;28;20122;-59
2021/03/10 04:42:14;;;;;;;13.85;5.75;;;0.20;60.00;;;;;;5088320;28;20043;-58
2021/03/10 04:44:40;;;;;;;11.90;5.55;;;0.20;59.80;;;;;;5082734;28;20038;-58
2021/03/10 04:47:05;;;;;;;9.43;4.50;;;0.20;60.00;;;;;;5095622;28;20118;-58
2021/03/10 04:49:31;;;;;;;12.85;5.07;;;0.20;60.20;;;;;;5082789;28;20070;-58
2021/03/10 04:51:57;;;;;;;11.57;5.05;;;0.20;60.10;;;;;;5089511;28;20119;-58
2021/03/10 04:54:23;;;;;;;12.15;5.30;;;0.20;60.60;;;;;;5084903;28;20020;-58
2021/03/10 04:56:48;;;;;;;11.38;5.95;;;0.30;61.40;;;;;;5079451;28;20484;-58
2021/03/10 04:59:14;;;;;;;12.57;5.55;;;0.30;61.10;;;;;;5083880;28;20909;-58
2021/03/10 05:01:40;;;;;;;11.82;5.22;;;0.40;60.10;;;;;;5077280;28;20028;-58
2021/03/10 05:04:06;;;;;;;10.35;5.07;;;0.30;59.90;;;;;;5083893;28;20024;-59
2021/03/10 05:06:31;;;;;;;14.40;6.28;;;0.30;60.50;;;;;;5084584;28;20044;-58
2021/03/10 05:08:57;;;;;;;13.23;6.03;;;0.30;61.00;;;;;;5076095;28;20139;-58
2021/03/10 05:11:22;;;;;;;13.05;5.70;;;0.30;61.10;;;;;;5079700;28;20103;-58
2021/03/10 05:13:49;;;;;;;13.02;5.05;;;0.30;60.10;;;;;;5076595;28;20027;-58
2021/03/10 05:16:16;;;;;;;12.10;5.18;;;0.20;59.90;;;;;;5083096;28;20059;-58
2021/03/10 05:18:42;;;;;;;14.43;5.50;;;0.20;59.40;;;;;;5088640;28;20492;-57
2021/03/10 05:21:07;;;;;;;12.45;4.85;;;0.20;59.50;;;;;;5087573;28;20144;-58
2021/03/10 05:23:33;;;;;;;9.77;4.60;;;0.20;60.10;;;;;;5089860;28;20035;-58
2021/03/10 05:25:59;;;;;;;13.95;5.40;;;0.30;60.30;;;;;;5094021;28;20057;-58
2021/03/10 05:28:24;;;;;;;18.65;5.43;;;0.30;60.80;;;;;;5088515;28;20039;-58
2021/03/10 05:30:50;;;;;;;10.20;5.35;;;0.30;60.60;;;;;;5083557;28;20035;-58
2021/03/10 05:33:16;;;;;;;16.15;5.78;;;0.40;60.70;;;;;;5065114;28;20047;-58
2021/03/10 05:35:42;;;;;;;12.10;5.68;;;0.40;60.90;;;;;;5086759;28;20028;-58
2021/03/10 05:38:07;;;;;;;13.10;5.95;;;0.40;60.50;;;;;;5087182;28;20112;-56
2021/03/10 05:40:33;;;;;;;11.18;5.32;;;0.40;60.50;;;;;;5093257;28;20717;-58
2021/03/10 05:43:03;;;;;;;11.40;4.88;;;0.30;59.70;;;;;;5069006;28;20046;-58
2021/03/10 05:45:28;;;;;;;9.57;5.35;;;0.40;59.50;;;;;;5085525;28;20094;-57
2021/03/10 05:47:54;;;;;;;11.27;5.35;;;0.40;59.60;;;;;;5094435;28;20551;-58
2021/03/10 05:50:20;;;;;;;14.98;6.35;;;0.50;59.80;;;;;;5070128;28;20046;-57
2021/03/10 05:52:48;;;;;;;11.52;5.60;;;0.50;59.40;;;;;;5085335;28;20131;-58
2021/03/10 05:55:20;;;;;;;13.25;6.28;;;0.50;58.90;;;;;;5079393;28;20032;-58
2021/03/10 05:57:46;;;;;;;10.02;5.15;;;0.40;58.70;;;;;;5086850;28;20031;-58
2021/03/10 06:00:13;;;;;;;10.63;6.03;;;0.30;58.80;;;;;;5078448;28;20032;-58
2021/03/10 06:02:39;;;;;;;9.23;5.30;;;0.30;59.00;;;;;;5066526;28;20794;-57
2021/03/10 06:05:20;;;;;;;11.27;5.57;;;0.30;59.40;;;;;;5088219;28;20031;-57
2021/03/10 06:07:46;;;;;;;10.38;5.32;;;0.40;59.70;;;;;;5088739;28;20032;-57
2021/03/10 06:10:12;;;;;;;13.80;5.50;;;0.50;58.70;;;;;;5086380;28;20678;-57
2021/03/10 06:12:43;;;;;;;18.73;5.68;;;0.50;59.00;;;;;;5087892;28;20063;-56
2021/03/10 06:15:11;;;;;;;13.57;5.88;;;0.60;58.50;;;;;;5086353;28;20569;-58
2021/03/10 06:17:55;;;;;;;15.07;6.07;;;0.60;58.60;;;;;;5080129;28;20028;-59
2021/03/10 06:20:25;;;;;;;15.30;5.43;;;0.60;58.20;;;;;;5077306;28;20068;-57
2021/03/10 06:22:52;;;;;;;13.38;5.88;;;0.60;57.90;;;;;;5072700;28;20039;-56
2021/03/10 06:25:17;;;;;;;14.20;5.70;;;0.70;57.80;;;;;;5083789;28;20711;-57
2021/03/10 06:27:57;;;;;;;14.65;7.03;;;0.70;57.80;;;;;;5088462;28;20038;-58
2021/03/10 06:30:41;;;;;;;14.25;6.80;;;0.70;57.50;;;;;;5080510;28;20036;-59
2021/03/10 06:33:08;;;;;;;12.88;5.78;;;0.80;57.50;;;;;;5084802;28;20043;-58
2021/03/10 06:35:35;;;;;;;13.68;6.03;;;0.90;57.40;;;;;;5083849;28;20039;-59
2021/03/10 06:38:12;;;;;;;15.48;6.63;;;0.90;56.60;;;;;;5079866;28;20110;-59
2021/03/10 06:40:54;;;;;;;10.95;5.57;;;1.00;57.30;;;;;;5087369;28;20050;-57
2021/03/10 06:43:21;;;;;;;11.23;5.97;;;0.90;56.80;;;;;;5094376;28;20039;-57
2021/03/10 06:45:47;;;;;;;11.48;5.55;;;0.90;56.70;;;;;;5091740;28;20038;-55
2021/03/10 06:48:21;;;;;;;14.82;6.25;;;0.90;57.10;;;;;;5084323;28;20031;-59
2021/03/10 06:50:47;;;;;;;16.17;5.78;;;0.80;57.20;;;;;;5080003;28;20066;-58
2021/03/10 06:53:14;;;;;;;18.08;6.72;;;0.90;57.20;;;;;;5083440;28;20042;-58
2021/03/10 06:55:44;;;;;;;15.50;6.22;;;1.00;56.70;;;;;;5066885;28;20444;-58
2021/03/10 06:58:11;;;;;;;15.23;6.25;;;1.00;56.70;;;;;;5083794;28;20062;-59
2021/03/10 07:00:37;;;;;;;15.35;6.05;;;1.10;56.30;;;;;;5091552;28;20498;-57
2021/03/10 07:03:04;;;;;;;15.60;6.10;;;1.00;56.60;;;;;;5088486;28;20108;-58
2021/03/10 07:05:31;;;;;;;12.00;5.65;;;1.10;56.40;;;;;;5085974;28;20565;-57
2021/03/10 07:07:57;;;;;;;11.57;5.60;;;1.10;56.40;;;;;;5083720;28;20027;-57
2021/03/10 07:10:26;;;;;;;15.32;6.20;;;1.20;56.20;;;;;;5090104;28;20749;-58
2021/03/10 07:12:56;;;;;;;14.27;6.18;;;1.40;56.00;;;;;;5084163;28;20728;-57
2021/03/10 07:15:22;;;;;;;14.05;5.70;;;1.50;55.40;;;;;;5086648;28;20039;-58
2021/03/10 07:17:49;;;;;;;14.57;5.50;;;1.70;55.60;;;;;;5083038;28;20042;-58
2021/03/10 07:20:16;;;;;;;12.68;6.10;;;1.70;54.80;;;;;;5086215;28;20035;-58
2021/03/10 07:23:02;;;;;;;13.18;5.78;;;1.90;54.60;;;;;;5081908;28;20677;-58
2021/03/10 07:25:31;;;;;;;10.80;5.35;;;2.00;54.60;;;;;;5078851;28;20547;-58
2021/03/10 07:27:59;;;;;;;14.02;6.18;;;2.10;54.50;;;;;;5053843;28;20177;-56
2021/03/10 07:30:52;;;;;;;12.98;5.82;;;2.30;54.70;;;;;;5084795;28;20044;-58
2021/03/10 07:33:22;;;;;;;16.42;5.95;;;2.40;54.40;;;;;;5074469;28;20063;-56
2021/03/10 07:35:53;;;;;;;14.25;5.78;;;2.60;53.30;;;;;;5084946;28;20123;-58
2021/03/10 07:38:22;;;;;;;14.77;5.97;;;3.00;52.30;;;;;;5078611;28;20027;-58
2021/03/10 07:40:57;;;;;;;16.83;6.25;;;3.50;51.20;;;;;;5084974;28;20078;-58
2021/03/10 07:43:50;;;;;;;15.77;7.05;;;4.10;49.90;;;;;;5077043;28;20143;-58
2021/03/10 07:46:32;;;;;;;13.88;6.38;;;4.70;48.30;;;;;;5080094;28;20027;-59
2021/03/10 07:49:00;;;;;;;11.63;6.25;;;5.40;47.10;;;;;;5084468;28;20050;-59
2021/03/10 07:51:32;;;;;;;12.77;5.85;;;5.90;45.00;;;;;;5081251;28;20032;-58
2021/03/10 07:54:00;;;;;;;19.40;6.78;;;6.20;43.70;;;;;;5091035;28;20047;-61
2021/03/10 07:56:28;;;;;;;14.77;7.00;;;6.60;44.00;;;;;;5083487;28;20070;-59
2021/03/10 07:59:12;;;;;;;12.45;5.82;;;6.90;42.60;;;;;;5080365;28;20138;-58
2021/03/10 08:01:38;;;;;;;11.68;5.78;;;7.20;41.80;;;;;;5080044;28;20479;-60
2021/03/10 08:04:15;;;;;;;14.52;7.05;;;7.50;41.10;;;;;;5075362;28;20767;-58
2021/03/10 08:06:45;;;;;;;12.98;6.15;;;7.70;40.80;;;;;;5075805;28;20977;-58
2021/03/10 08:09:13;;;;;;;13.23;6.57;;;7.80;39.50;;;;;;5081823;28;20055;-59
2021/03/10 08:11:43;;;;;;;13.85;6.30;;;7.80;40.20;;;;;;5077579;28;20484;-59
2021/03/10 08:14:09;;;;;;;15.27;6.70;;;7.90;39.80;;;;;;5084934;28;20031;-58
2021/03/10 08:16:47;;;;;;;9.88;5.43;;;7.90;39.50;;;;;;5082105;28;20139;-59
2021/03/10 08:19:13;;;;;;;12.35;6.10;;;8.10;39.60;;;;;;5088492;28;20541;-57
2021/03/10 08:21:54;;;;;;;11.07;6.25;;;8.20;39.20;;;;;;5080282;28;20032;-58
2021/03/10 08:24:21;;;;;;;15.38;6.10;;;7.80;38.80;;;;;;5082032;28;20048;-57
2021/03/10 08:27:00;;;;;;;13.18;6.50;;;7.70;40.00;;;;;;5076138;28;20062;-56
2021/03/10 08:29:27;;;;;;;9.63;5.47;;;7.50;40.10;;;;;;5084392;28;20039;-59
2021/03/10 08:31:55;;;;;;;11.35;6.25;;;7.30;40.60;;;;;;5077525;28;20101;-56
2021/03/10 08:34:38;;;;;;;11.80;5.78;;;7.40;42.00;;;;;;5081202;28;20040;-56
2021/03/10 08:37:11;;;;;;;15.18;6.80;;;7.60;41.20;;;;;;5080980;28;20028;-56
2021/03/10 08:39:47;;;;;;;10.77;6.53;;;7.70;41.60;;;;;;5081490;28;20179;-58
2021/03/10 08:42:21;;;;;;;13.35;6.50;;;7.80;39.80;;;;;;5075849;28;20120;-56
2021/03/10 08:44:48;;;;;;;12.35;6.30;;;7.80;39.40;;;;;;5080678;28;20039;-58
2021/03/10 08:47:16;;;;;;;11.18;5.95;;;7.70;39.10;;;;;;5063485;28;20515;-58
2021/03/10 08:50:00;;;;;;;9.43;5.70;;;7.60;37.80;;;;;;5081266;28;20074;-58
2021/03/10 08:52:30;;;;;;;9.00;5.82;;;7.40;38.40;;;;;;5077046;28;20032;-55
2021/03/10 08:54:59;;;;;;;17.27;6.03;;;7.40;39.10;;;;;;5066493;28;20840;-57
2021/03/10 08:57:30;;;;;;;12.27;5.75;;;7.50;40.60;;;;;;5073821;28;20081;-58
2021/03/10 08:59:58;;;;;;;10.60;5.43;;;7.80;38.90;;;;;;5072684;28;20067;-58
2021/03/10 09:02:34;;;;;;;10.07;5.15;;;7.90;38.80;;;;;;5089343;28;20031;-57
2021/03/10 09:05:04;;;;;;;11.32;5.32;;;8.00;37.30;;;;;;5068426;28;20027;-57
2021/03/10 09:07:31;;;;;;;11.70;5.40;;;8.20;36.60;;;;;;5063606;28;20141;-58
2021/03/10 09:10:00;;;;;;;12.50;4.93;;;8.70;36.80;;;;;;5066688;28;20040;-58
2021/03/10 09:12:28;;;;;;;9.32;5.15;;;9.20;36.80;;;;;;5066608;28;20974;-56
2021/03/10 09:15:15;;;;;;;7.07;4.50;;;9.80;35.40;;;;;;5080844;28;20035;-59
2021/03/10 09:17:43;;;;;;;9.63;4.95;;;10.40;32.30;;;;;;5067880;28;20850;-59
2021/03/10 09:20:24;;;;;;;9.98;4.90;;;10.70;31.60;;;;;;5087193;28;20106;-59
2021/03/10 09:22:52;;;;;;;11.70;5.57;;;10.90;32.70;;;;;;5067837;28;20042;-59
2021/03/10 09:25:27;;;;;;;9.23;5.72;;;11.30;31.30;;;;;;5060149;28;21034;-58
2021/03/10 09:28:15;;;;;;;8.15;5.10;;;11.80;31.90;;;;;;5068573;28;20035;-59
2021/03/10 09:31:00;;;;;;;11.20;5.18;;;12.30;29.90;;;;;;5089350;28;20042;-56
2021/03/10 09:33:40;;;;;;;11.00;6.10;;;12.00;29.80;;;;;;5064153;28;20028;-58
2021/03/10 09:36:06;;;;;;;9.65;5.60;;;11.90;30.90;;;;;;5076785;28;20032;-59
2021/03/10 09:38:41;;;;;;;15.88;6.57;;;11.70;31.80;;;;;;5065113;28;20032;-59
2021/03/10 09:41:12;;;;;;;11.45;6.00;;;11.10;31.70;;;;;;5064078;28;20070;-58
2021/03/10 09:43:40;;;;;;;12.57;6.47;;;10.80;32.40;;;;;;5066327;28;20183;-59
2021/03/10 09:46:11;;;;;;;9.93;5.95;;;10.60;34.10;;;;;;5070262;28;20122;-59
2021/03/10 09:48:41;;;;;;;9.32;5.47;;;10.40;32.60;;;;;;5066799;28;20031;-59
2021/03/10 09:51:16;;;;;;;10.20;5.72;;;10.50;33.20;;;;;;5090112;28;20039;-59
2021/03/10 09:53:50;;;;;;;11.88;5.30;;;10.40;31.50;;;;;;5081163;28;20480;-59
2021/03/10 09:56:23;;;;;;;9.57;5.85;;;10.30;33.30;;;;;;5079384;28;20035;-58
2021/03/10 09:58:59;;;;;;;11.25;5.65;;;10.60;32.60;;;;;;5068932;28;20031;-58
2021/03/10 10:01:47;;;;;;;9.18;5.20;;;11.10;31.70;;;;;;5059980;28;20516;-58
2021/03/10 10:04:26;;;;;;;9.35;5.10;;;11.70;29.20;;;;;;5065385;28;20028;-59
2021/03/10 10:06:53;;;;;;;7.30;4.70;;;11.70;30.80;;;;;;5062674;28;20059;-59
2021/03/10 10:09:21;;;;;;;10.38;5.35;;;11.80;30.70;;;;;;5087932;28;20028;-59
2021/03/10 10:11:47;;;;;;;9.93;5.60;;;11.90;30.20;;;;;;5081832;28;20031;-59
2021/03/10 10:14:14;;;;;;;13.98;4.60;;;11.80;30.00;;;;;;5066829;28;20759;-59
2021/03/10 10:16:40;;;;;;;11.95;4.88;;;11.80;30.10;;;;;;5061555;28;20032;-59
2021/03/10 10:19:12;;;;;;;8.27;5.43;;;11.90;30.10;;;;;;5062196;28;20023;-59
2021/03/10 10:21:40;;;;;;;8.65;4.00;;;11.90;29.90;;;;;;5069611;28;20052;-58
2021/03/10 10:24:06;;;;;;;7.07;4.05;;;11.50;29.00;;;;;;5079921;28;20161;-58
2021/03/10 10:26:32;;;;;;;7.75;4.47;;;11.10;29.00;;;;;;5082882;28;20038;-57
2021/03/10 10:28:57;;;;;;;6.20;3.90;;;10.80;29.70;;;;;;5086845;28;20035;-59
2021/03/10 10:31:25;;;;;;;7.88;3.30;;;10.40;29.50;;;;;;5063736;28;20157;-58
2021/03/10 10:33:51;;;;;;;5.78;4.15;;;10.20;29.70;;;;;;5050477;28;20056;-58
2021/03/10 10:36:17;;;;;;;6.28;3.67;;;10.00;30.20;;;;;;5068008;28;20111;-57
2021/03/10 10:38:46;;;;;;;6.70;3.65;;;9.90;31.10;;;;;;5062425;28;20027;-58
2021/03/10 10:41:13;;;;;;;7.68;3.83;;;9.80;30.00;;;;;;5070312;28;20027;-58
2021/03/10 10:43:39;;;;;;;7.18;3.60;;;9.60;30.00;;;;;;5090479;28;20036;-58
2021/03/10 10:46:09;;;;;;;10.05;3.95;;;9.50;30.50;;;;;;5055613;28;20602;-58
2021/03/10 10:48:41;;;;;;;8.63;4.00;;;9.40;31.00;;;;;;5060600;28;20054;-58
2021/03/10 10:51:16;;;;;;;6.00;3.58;;;9.40;30.80;;;;;;5089189;28;20043;-58
2021/03/10 10:53:52;;;;;;;10.35;4.53;;;9.50;32.10;;;;;;5066017;28;20066;-59
2021/03/10 10:56:18;;;;;;;8.77;4.45;;;9.50;32.10;;;;;;5063262;28;20041;-59
2021/03/10 10:58:44;;;;;;;13.15;4.25;;;9.40;31.70;;;;;;5088686;28;20028;-59
2021/03/10 11:01:10;;;;;;;9.07;4.30;;;9.50;31.90;;;;;;5083199;28;20238;-58
2021/03/10 11:03:38;;;;;;;8.40;4.30;;;9.50;32.10;;;;;;5063619;28;20492;-57
2021/03/10 11:06:07;;;;;;;7.13;3.85;;;9.50;32.80;;;;;;5065679;28;20032;-57
2021/03/10 11:08:39;;;;;;;7.13;4.03;;;9.40;31.80;;;;;;5089656;28;20074;-57
2021/03/10 11:11:05;;;;;;;6.60;4.22;;;9.30;31.70;;;;;;5078590;28;20039;-56
2021/03/10 11:13:31;;;;;;;8.23;4.55;;;9.00;32.10;;;;;;5050054;28;20054;-55
2021/03/10 11:16:04;;;;;;;8.70;4.47;;;9.10;32.60;;;;;;5061691;28;20025;-58
2021/03/10 11:18:43;;;;;;;7.55;4.63;;;9.20;33.70;;;;;;5067276;28;20104;-58
2021/03/10 11:21:08;;;;;;;10.90;5.13;;;9.40;34.00;;;;;;5076805;28;20040;-58
2021/03/10 11:23:35;;;;;;;9.60;5.55;;;9.70;33.00;;;;;;5084877;28;20112;-58
2021/03/10 11:26:01;;;;;;;8.00;5.47;;;9.80;33.80;;;;;;5075303;28;20039;-57
2021/03/10 11:28:29;;;;;;;9.98;5.63;;;10.00;33.00;;;;;;5081920;28;20872;-57
2021/03/10 11:30:56;;;;;;;10.23;5.22;;;10.00;32.30;;;;;;5086849;28;20395;-58
2021/03/10 11:33:22;;;;;;;8.55;5.40;;;10.00;33.30;;;;;;5054820;28;20051;-57
2021/03/10 11:35:48;;;;;;;13.18;6.03;;;10.00;33.60;;;;;;5065323;28;20034;-58
2021/03/10 11:38:15;;;;;;;11.90;6.25;;;10.10;34.00;;;;;;5059915;28;20031;-57
2021/03/10 11:40:42;;;;;;;15.20;6.30;;;10.10;33.00;;;;;;5065786;28;20035;-57
2021/03/10 11:43:08;;;;;;;12.77;6.72;;;10.20;33.10;;;;;;5076933;28;20036;-57
2021/03/10 11:45:35;;;;;;;11.57;6.63;;;10.20;31.50;;;;;;5077111;28;20113;-59
2021/03/10 11:48:00;;;;;;;11.65;7.13;;;10.20;32.80;;;;;;5079582;28;20039;-57
2021/03/10 11:50:27;;;;;;;9.90;6.15;;;10.10;32.00;;;;;;5076566;28;20072;-59
2021/03/10 11:52:53;;;;;;;15.13;6.82;;;10.10;33.00;;;;;;5087340;28;20081;-58
2021/03/10 11:55:18;;;;;;;11.90;6.78;;;10.10;33.50;;;;;;5095244;28;20028;-57
2021/03/10 11:57:44;;;;;;;11.80;6.57;;;10.20;33.80;;;;;;5073096;28;20095;-57
2021/03/10 12:00:15;;;;;;;14.15;6.57;;;10.30;32.10;;;;;;5064829;28;20031;-58
2021/03/10 12:02:47;;;;;;;10.57;6.43;;;10.20;32.90;;;;;;5047596;28;20028;-58
2021/03/10 12:05:21;;;;;;;11.60;6.68;;;9.90;32.70;;;;;;5062469;28;20478;-57
2021/03/10 12:07:47;;;;;;;14.50;6.40;;;9.90;33.30;;;;;;5083976;28;20039;-57
2021/03/10 12:10:16;;;;;;;14.35;7.43;;;10.00;32.70;;;;;;5084481;28;20040;-58
2021/03/10 12:12:42;;;;;;;12.68;6.55;;;9.80;33.00;;;;;;5065523;28;20054;-58
2021/03/10 12:15:09;;;;;;;10.10;6.15;;;9.90;33.60;;;;;;5065671;28;20027;-57
2021/03/10 12:17:35;;;;;;;10.57;6.97;;;9.90;33.70;;;;;;5082741;28;20020;-56
2021/03/10 12:20:02;;;;;;;14.65;7.72;;;9.90;33.70;;;;;;5089828;28;20040;-58
2021/03/10 12:22:28;;;;;;;14.30;7.78;;;10.00;34.40;;;;;;5061689;28;20036;-58
2021/03/10 12:24:54;;;;;;;16.58;7.63;;;10.10;34.10;;;;;;5072110;28;20048;-55
2021/03/10 12:27:26;;;;;;;13.45;7.22;;;10.00;35.70;;;;;;5092779;28;20436;-58
2021/03/10 12:29:57;;;;;;;10.82;6.78;;;10.00;35.60;;;;;;5088479;28;20031;-58
2021/03/10 12:32:24;;;;;;;15.10;8.05;;;10.10;34.70;;;;;;5087912;28;20028;-58
2021/03/10 12:34:51;;;;;;;12.48;6.70;;;10.20;35.10;;;;;;5083207;28;20024;-57
2021/03/10 12:37:16;;;;;;;16.73;7.97;;;10.30;34.90;;;;;;5087929;28;20114;-57
2021/03/10 12:39:43;;;;;;;13.38;7.45;;;10.40;35.40;;;;;;5097657;28;20471;-56
2021/03/10 12:42:09;;;;;;;12.00;7.88;;;10.40;35.30;;;;;;5092862;28;20023;-57
2021/03/10 12:44:37;;;;;;;12.45;8.13;;;10.40;34.80;;;;;;5070215;28;20107;-55
2021/03/10 12:47:03;;;;;;;15.98;8.23;;;10.40;34.60;;;;;;5082077;28;20036;-59
2021/03/10 12:49:29;;;;;;;14.43;8.77;;;10.40;35.60;;;;;;5084560;28;20442;-59
2021/03/10 12:51:55;;;;;;;13.65;8.20;;;10.40;34.70;;;;;;5084871;28;20040;-57
2021/03/10 12:54:21;;;;;;;12.40;7.90;;;10.40;36.00;;;;;;5071594;28;20024;-58
2021/03/10 12:56:47;;;;;;;15.98;7.50;;;10.40;36.30;;;;;;5062556;28;20028;-59